This is the latest recevied weather packets stored in our database for station/object KC9NPJ-13. If no packets are shown the sender has not sent any weather packets the latest 10 day(s).
| Time | Temp. | Humidity | Pressure | Rain* | Wind** | Luminosity | Snow |
|---|---|---|---|---|---|---|---|
| 1777581562 | 17.78° C | 40% | 1017.2 hPa | 0 mm | - | - | - |
| 1777581262 | 17.78° C | 44% | 1017.3 hPa | 0 mm | - | - | - |
| 1777580962 | 18.33° C | 40% | 1017.3 hPa | 0 mm | - | - | - |
| 1777580662 | 18.33° C | 38% | 1017.5 hPa | 0 mm | - | - | - |
| 1777580362 | 18.33° C | 44% | 1017.5 hPa | 0 mm | - | - | - |
| 1777580062 | 17.78° C | 40% | 1017.7 hPa | 0 mm | - | - | - |
| 1777579762 | 17.78° C | 42% | 1017.7 hPa | 0 mm | - | - | - |
| 1777579462 | 17.22° C | 42% | 1017.7 hPa | 0 mm | - | - | - |
| 1777579162 | 17.78° C | 41% | 1017.9 hPa | 0 mm | - | - | - |
| 1777578862 | 17.78° C | 50% | 1017.8 hPa | 0 mm | - | - | - |
| 1777578562 | 17.78° C | 45% | 1017.9 hPa | 0 mm | - | - | - |
| 1777578262 | 17.78° C | 47% | 1017.9 hPa | 0 mm | - | - | - |
| 1777577962 | 17.22° C | 44% | 1018 hPa | 0 mm | - | - | - |
| 1777577662 | 16.67° C | 45% | 1017.9 hPa | 0 mm | - | - | - |
| 1777577362 | 16.67° C | 43% | 1018 hPa | 0 mm | - | - | - |
| 1777577062 | 17.22° C | 40% | 1018.2 hPa | 0 mm | - | - | - |
| 1777576762 | 17.78° C | 47% | 1018.3 hPa | 0 mm | - | - | - |
| 1777576462 | 17.78° C | 46% | 1018.4 hPa | 0 mm | - | - | - |
| 1777576162 | 18.33° C | 40% | 1018.6 hPa | 0 mm | - | - | - |
| 1777575862 | 18.33° C | 40% | 1018.6 hPa | 0 mm | - | - | - |
| 1777575562 | 18.33° C | 40% | 1018.6 hPa | 0 mm | - | - | - |
| 1777575262 | 17.78° C | 41% | 1018.6 hPa | 0 mm | - | - | - |
| 1777574962 | 17.78° C | 40% | 1018.7 hPa | 0 mm | - | - | - |
| 1777574662 | 17.22° C | 47% | 1018.7 hPa | 0 mm | - | - | - |
| 1777574362 | 16.67° C | 40% | 1018.9 hPa | 0 mm | - | - | - |
* Rain latest hour (hover to see other rain measurements)
** Current wind speed in m/s (hover to see current wind gust speed)